Time;durP1;ratioP1;P1;durP2;ratioP2;P2;SDS_P1;SDS_P2;PMS_P1;PMS_P2;Temp;Humidity;BMP_temperature;BMP_pressure;BME280_temperature;BME280_humidity;BME280_pressure;Samples;Min_cycle;Max_cycle;Signal;HPM_P1;HPM_P2
2021/05/05 00:00:25;;;;;;;1.95;1.52;;;;;;;;;;5052779;28;20029;-78
2021/05/05 00:02:52;;;;;;;0.75;0.75;;;;;;;;;;5053312;28;20040;-79
2021/05/05 00:05:18;;;;;;;1.35;1.20;;;;;;;;;;5052679;28;20496;-78
2021/05/05 00:07:44;;;;;;;1.10;1.00;;;;;;;;;;5053263;28;20025;-78
2021/05/05 00:10:11;;;;;;;1.33;1.00;;;;;;;;;;5052562;28;20111;-78
2021/05/05 00:12:38;;;;;;;1.95;0.82;;;;;;;;;;5053110;28;20383;-79
2021/05/05 00:15:05;;;;;;;2.13;1.40;;;;;;;;;;5053366;28;20017;-78
2021/05/05 00:17:31;;;;;;;1.00;0.93;;;;;;;;;;5052677;28;20040;-79
2021/05/05 00:19:57;;;;;;;1.80;1.60;;;;;;;;;;5052998;28;20025;-78
2021/05/05 00:22:23;;;;;;;1.10;1.10;;;;;;;;;;5052780;28;20048;-78
2021/05/05 00:24:49;;;;;;;1.15;1.05;;;;;;;;;;5052947;28;20032;-79
2021/05/05 00:27:15;;;;;;;1.38;1.02;;;;;;;;;;5052340;28;20037;-78
2021/05/05 00:29:41;;;;;;;1.05;1.05;;;;;;;;;;5052906;28;20395;-79
2021/05/05 00:32:08;;;;;;;2.40;0.85;;;;;;;;;;5052742;28;20376;-78
2021/05/05 00:34:34;;;;;;;1.80;1.23;;;;;;;;;;5052958;28;20031;-79
2021/05/05 00:37:00;;;;;;;0.80;0.80;;;;;;;;;;5052773;28;20051;-79
2021/05/05 00:39:27;;;;;;;1.17;0.88;;;;;;;;;;5052483;28;20029;-78
2021/05/05 00:41:53;;;;;;;1.33;1.23;;;;;;;;;;5052931;28;20029;-78
2021/05/05 00:44:21;;;;;;;1.05;0.82;;;;;;;;;;5052230;28;20112;-78
2021/05/05 00:46:48;;;;;;;1.50;0.98;;;;;;;;;;5052838;28;20454;-78
2021/05/05 00:49:14;;;;;;;1.17;1.08;;;;;;;;;;5052134;28;20361;-78
2021/05/05 00:51:40;;;;;;;1.45;1.15;;;;;;;;;;5052620;28;20017;-78
2021/05/05 00:54:06;;;;;;;0.98;0.93;;;;;;;;;;5052493;28;20041;-78
2021/05/05 00:56:32;;;;;;;0.90;0.85;;;;;;;;;;5052076;28;20104;-78
2021/05/05 00:58:58;;;;;;;2.08;1.13;;;;;;;;;;5052165;28;20033;-78
2021/05/05 01:01:24;;;;;;;1.30;1.20;;;;;;;;;;5051843;28;20032;-78
2021/05/05 01:03:50;;;;;;;1.17;1.08;;;;;;;;;;5052163;28;20376;-79
2021/05/05 01:06:16;;;;;;;1.25;1.20;;;;;;;;;;5051622;28;20048;-79
2021/05/05 01:08:45;;;;;;;0.80;0.80;;;;;;;;;;5052298;28;20523;-79
2021/05/05 01:11:11;;;;;;;1.13;0.90;;;;;;;;;;5051696;28;20025;-78
2021/05/05 01:13:37;;;;;;;1.13;1.13;;;;;;;;;;5051925;28;20056;-78
2021/05/05 01:16:03;;;;;;;1.40;1.08;;;;;;;;;;5052364;28;20380;-78
2021/05/05 01:18:29;;;;;;;0.90;0.90;;;;;;;;;;5050958;28;20029;-79
2021/05/05 01:20:59;;;;;;;1.15;1.15;;;;;;;;;;5051739;28;20059;-79
2021/05/05 01:23:25;;;;;;;1.27;1.25;;;;;;;;;;5051848;28;20122;-78
2021/05/05 01:25:52;;;;;;;1.40;1.30;;;;;;;;;;5052064;28;20059;-79
2021/05/05 01:28:18;;;;;;;1.17;1.05;;;;;;;;;;5051604;28;20432;-78
2021/05/05 01:30:45;;;;;;;1.67;1.23;;;;;;;;;;5051758;28;20361;-78
2021/05/05 01:33:11;;;;;;;1.20;1.10;;;;;;;;;;5051444;28;20021;-78
2021/05/05 01:35:37;;;;;;;1.92;1.73;;;;;;;;;;5051634;28;20032;-79
2021/05/05 01:38:03;;;;;;;1.40;1.30;;;;;;;;;;5051396;28;20032;-79
2021/05/05 01:40:31;;;;;;;2.17;1.23;;;;;;;;;;5050803;28;20063;-78
2021/05/05 01:42:57;;;;;;;1.02;0.98;;;;;;;;;;5051552;28;20052;-78
2021/05/05 01:45:23;;;;;;;1.20;1.20;;;;;;;;;;5051299;28;20499;-78
2021/05/05 01:47:56;;;;;;;1.92;1.58;;;;;;;;;;5051575;28;20025;-78
2021/05/05 01:50:22;;;;;;;1.45;1.38;;;;;;;;;;5033073;28;20434;-78
2021/05/05 01:52:49;;;;;;;3.05;1.98;;;;;;;;;;5051438;28;20032;-79
2021/05/05 01:55:15;;;;;;;1.50;1.40;;;;;;;;;;5051125;28;20029;-78
2021/05/05 01:57:46;;;;;;;1.60;1.40;;;;;;;;;;5051415;28;20048;-78
2021/05/05 02:00:14;;;;;;;1.45;1.35;;;;;;;;;;5050648;28;20028;-78
2021/05/05 02:02:40;;;;;;;1.00;1.00;;;;;;;;;;5051175;28;20020;-78
2021/05/05 02:05:08;;;;;;;2.17;1.60;;;;;;;;;;5050894;28;20037;-78
2021/05/05 02:07:34;;;;;;;2.28;1.40;;;;;;;;;;5050793;28;20423;-78
2021/05/05 02:10:00;;;;;;;1.33;1.23;;;;;;;;;;5051218;28;20028;-79
2021/05/05 02:12:27;;;;;;;1.50;1.40;;;;;;;;;;5050550;28;20028;-78
2021/05/05 02:14:53;;;;;;;1.42;1.17;;;;;;;;;;5051002;28;20032;-79
2021/05/05 02:17:20;;;;;;;2.15;1.20;;;;;;;;;;5050738;28;20100;-79
2021/05/05 02:19:46;;;;;;;1.13;1.08;;;;;;;;;;5050793;28;20112;-79
2021/05/05 02:22:12;;;;;;;1.20;1.15;;;;;;;;;;5050511;28;20028;-78
2021/05/05 02:24:38;;;;;;;1.83;1.15;;;;;;;;;;5050829;28;20116;-78
2021/05/05 02:27:05;;;;;;;1.50;1.40;;;;;;;;;;5050934;28;20029;-79
2021/05/05 02:29:31;;;;;;;1.52;1.42;;;;;;;;;;5050589;28;20041;-78
2021/05/05 02:31:57;;;;;;;2.75;1.92;;;;;;;;;;5050923;28;20391;-78
2021/05/05 02:34:23;;;;;;;1.73;1.23;;;;;;;;;;5050572;28;20052;-78
2021/05/05 02:36:50;;;;;;;2.17;2.03;;;;;;;;;;5050565;28;20029;-78
2021/05/05 02:39:17;;;;;;;1.48;1.00;;;;;;;;;;5050691;28;20388;-78
2021/05/05 02:41:43;;;;;;;1.85;1.75;;;;;;;;;;5050781;28;20476;-78
2021/05/05 02:44:09;;;;;;;0.73;0.73;;;;;;;;;;5050371;28;20072;-78
2021/05/05 02:46:36;;;;;;;1.80;1.00;;;;;;;;;;5050801;28;20071;-79
2021/05/05 02:49:02;;;;;;;1.48;1.38;;;;;;;;;;5050839;28;20032;-78
2021/05/05 02:51:28;;;;;;;1.15;1.08;;;;;;;;;;5052014;28;20040;-78
2021/05/05 02:53:54;;;;;;;1.70;1.60;;;;;;;;;;5054821;28;20108;-79
2021/05/05 02:56:20;;;;;;;1.20;1.13;;;;;;;;;;5036661;28;20379;-78
2021/05/05 02:58:46;;;;;;;0.98;0.98;;;;;;;;;;5054386;28;20059;-78
2021/05/05 03:01:13;;;;;;;1.27;1.20;;;;;;;;;;5054171;28;20569;-78
2021/05/05 03:03:39;;;;;;;1.00;1.00;;;;;;;;;;5054434;28;20087;-78
2021/05/05 03:06:05;;;;;;;1.50;1.20;;;;;;;;;;5054399;28;20037;-78
2021/05/05 03:08:31;;;;;;;1.20;1.10;;;;;;;;;;5054387;28;20077;-78
2021/05/05 03:10:57;;;;;;;1.30;1.20;;;;;;;;;;5054385;28;20025;-79
2021/05/05 03:13:23;;;;;;;1.00;0.90;;;;;;;;;;5053777;28;20021;-78
2021/05/05 03:15:49;;;;;;;1.88;1.40;;;;;;;;;;5054337;28;20047;-78
2021/05/05 03:18:16;;;;;;;0.80;0.80;;;;;;;;;;5053910;28;20040;-78
2021/05/05 03:20:42;;;;;;;1.30;1.20;;;;;;;;;;5053810;28;20021;-78
2021/05/05 03:23:08;;;;;;;2.05;1.65;;;;;;;;;;5053595;28;20029;-78
2021/05/05 03:25:34;;;;;;;1.67;1.58;;;;;;;;;;5054369;28;20033;-78
2021/05/05 03:28:00;;;;;;;1.10;1.10;;;;;;;;;;5054251;28;20036;-79
2021/05/05 03:30:26;;;;;;;0.75;0.75;;;;;;;;;;5053750;28;20104;-78
2021/05/05 03:32:52;;;;;;;1.40;1.17;;;;;;;;;;5053973;28;20044;-78
2021/05/05 03:35:18;;;;;;;1.15;1.15;;;;;;;;;;5053790;28;20045;-78
2021/05/05 03:37:44;;;;;;;3.17;1.30;;;;;;;;;;5053886;28;20036;-78
2021/05/05 03:40:11;;;;;;;1.17;1.02;;;;;;;;;;5053590;28;20437;-78
2021/05/05 03:42:37;;;;;;;1.52;1.42;;;;;;;;;;5053632;28;20055;-78
2021/05/05 03:45:04;;;;;;;0.95;0.95;;;;;;;;;;5053928;28;20404;-79
2021/05/05 03:47:30;;;;;;;1.27;1.17;;;;;;;;;;5053689;28;20063;-78
2021/05/05 03:49:57;;;;;;;0.95;0.95;;;;;;;;;;5053840;28;20029;-79
2021/05/05 03:52:23;;;;;;;1.10;1.00;;;;;;;;;;5053331;28;20028;-79
2021/05/05 03:54:49;;;;;;;0.85;0.85;;;;;;;;;;5053749;28;20536;-78
2021/05/05 03:57:15;;;;;;;1.13;1.10;;;;;;;;;;5053149;28;20049;-78
2021/05/05 03:59:41;;;;;;;1.63;1.52;;;;;;;;;;5053507;28;20136;-78
2021/05/05 04:02:07;;;;;;;1.05;1.00;;;;;;;;;;5052967;28;20037;-79
2021/05/05 04:04:34;;;;;;;2.90;1.67;;;;;;;;;;5053374;28;20036;-79
2021/05/05 04:07:00;;;;;;;1.42;1.20;;;;;;;;;;5053399;28;20424;-78
2021/05/05 04:09:26;;;;;;;0.93;0.93;;;;;;;;;;5052360;28;20100;-78
2021/05/05 04:11:52;;;;;;;0.95;0.95;;;;;;;;;;5051693;28;20033;-79
2021/05/05 04:14:18;;;;;;;1.20;1.00;;;;;;;;;;5052043;28;20034;-78
2021/05/05 04:16:44;;;;;;;1.52;1.42;;;;;;;;;;5051619;28;20033;-78
2021/05/05 04:19:10;;;;;;;1.58;1.48;;;;;;;;;;5053153;28;20039;-78
2021/05/05 04:21:37;;;;;;;0.98;0.98;;;;;;;;;;5053108;28;20037;-78
2021/05/05 04:24:03;;;;;;;1.42;1.15;;;;;;;;;;5053171;28;20102;-79
2021/05/05 04:26:29;;;;;;;1.60;1.27;;;;;;;;;;5052853;28;20032;-79
2021/05/05 04:28:55;;;;;;;0.88;0.88;;;;;;;;;;5053394;28;20502;-78
2021/05/05 04:31:21;;;;;;;2.83;1.10;;;;;;;;;;5052731;28;20029;-78
2021/05/05 04:33:47;;;;;;;1.20;1.13;;;;;;;;;;5052898;28;20391;-78
2021/05/05 04:36:13;;;;;;;1.70;1.38;;;;;;;;;;5052251;28;20349;-78
2021/05/05 04:38:40;;;;;;;3.22;1.80;;;;;;;;;;5053107;28;20104;-78
2021/05/05 04:41:06;;;;;;;1.23;1.15;;;;;;;;;;5053027;28;20057;-78
2021/05/05 04:43:32;;;;;;;1.77;1.30;;;;;;;;;;5052727;28;20419;-79
2021/05/05 04:45:59;;;;;;;1.00;0.90;;;;;;;;;;5052478;28;20051;-78
2021/05/05 04:48:25;;;;;;;2.10;1.50;;;;;;;;;;5052765;28;20163;-79
2021/05/05 04:50:51;;;;;;;1.00;1.00;;;;;;;;;;5052826;28;20048;-78
2021/05/05 04:53:18;;;;;;;1.10;1.10;;;;;;;;;;5052291;28;20059;-78
2021/05/05 04:55:44;;;;;;;1.67;1.13;;;;;;;;;;5052171;28;20044;-79
2021/05/05 04:58:10;;;;;;;1.45;1.35;;;;;;;;;;5052100;28;20040;-78
2021/05/05 05:00:36;;;;;;;1.33;1.10;;;;;;;;;;5052207;28;20029;-79
2021/05/05 05:03:02;;;;;;;1.48;1.00;;;;;;;;;;5052410;28;20169;-79
2021/05/05 05:05:28;;;;;;;0.95;0.88;;;;;;;;;;5051741;28;20041;-78
2021/05/05 05:07:54;;;;;;;2.05;1.90;;;;;;;;;;5052184;28;20087;-78
2021/05/05 05:10:20;;;;;;;1.30;1.00;;;;;;;;;;5051824;28;20029;-78
2021/05/05 05:12:47;;;;;;;1.50;1.40;;;;;;;;;;5052360;28;20033;-79
2021/05/05 05:15:13;;;;;;;1.75;1.65;;;;;;;;;;5050378;28;20032;-78
2021/05/05 05:17:39;;;;;;;1.50;1.40;;;;;;;;;;5051762;28;20065;-78
2021/05/05 05:20:08;;;;;;;8.82;1.88;;;;;;;;;;5051892;28;20060;-78
2021/05/05 05:22:35;;;;;;;1.13;0.88;;;;;;;;;;5052161;28;20025;-78
2021/05/05 05:25:04;;;;;;;1.30;1.20;;;;;;;;;;5051434;28;20547;-79
2021/05/05 05:27:31;;;;;;;2.63;1.17;;;;;;;;;;5051565;28;20044;-78
2021/05/05 05:29:57;;;;;;;1.23;1.08;;;;;;;;;;5052119;28;20029;-79
2021/05/05 05:32:24;;;;;;;0.85;0.85;;;;;;;;;;5051445;28;20031;-78
2021/05/05 05:34:50;;;;;;;0.93;0.93;;;;;;;;;;5051769;28;20064;-79
2021/05/05 05:37:16;;;;;;;1.17;1.17;;;;;;;;;;5050749;28;20044;-78
2021/05/05 05:39:42;;;;;;;1.60;1.50;;;;;;;;;;5051913;28;20051;-79
2021/05/05 05:42:08;;;;;;;0.70;0.70;;;;;;;;;;5051442;28;20108;-78
2021/05/05 05:44:34;;;;;;;1.88;1.40;;;;;;;;;;5051327;28;20037;-78
2021/05/05 05:47:00;;;;;;;1.58;1.48;;;;;;;;;;5049722;28;20095;-79
2021/05/05 05:49:26;;;;;;;1.20;1.13;;;;;;;;;;5049653;28;20055;-78
2021/05/05 05:51:52;;;;;;;2.13;1.92;;;;;;;;;;5051562;28;20028;-79
2021/05/05 05:54:18;;;;;;;2.47;1.42;;;;;;;;;;5047645;28;20060;-78
2021/05/05 05:56:44;;;;;;;1.63;1.52;;;;;;;;;;5049943;28;20032;-78
2021/05/05 05:59:10;;;;;;;1.35;1.25;;;;;;;;;;5049278;28;20029;-78
2021/05/05 06:01:37;;;;;;;2.30;1.23;;;;;;;;;;5044690;28;20034;-78
2021/05/05 06:04:03;;;;;;;1.50;1.33;;;;;;;;;;5050899;28;20499;-79
2021/05/05 06:06:29;;;;;;;1.73;1.63;;;;;;;;;;5048530;28;20032;-79
2021/05/05 06:08:55;;;;;;;1.25;1.15;;;;;;;;;;5047431;28;20107;-79
2021/05/05 06:11:21;;;;;;;3.15;1.65;;;;;;;;;;5047804;28;20025;-78
2021/05/05 06:13:47;;;;;;;1.80;1.10;;;;;;;;;;5048123;28;20021;-78
2021/05/05 06:16:13;;;;;;;2.50;1.80;;;;;;;;;;5048746;28;20108;-78
2021/05/05 06:18:39;;;;;;;2.65;2.45;;;;;;;;;;5049474;28;20032;-80
2021/05/05 06:21:07;;;;;;;2.42;1.50;;;;;;;;;;5049948;28;20040;-79
2021/05/05 06:23:33;;;;;;;1.77;1.63;;;;;;;;;;5049976;28;20094;-80
2021/05/05 06:25:59;;;;;;;6.43;2.58;;;;;;;;;;5047513;28;20056;-78
2021/05/05 06:28:25;;;;;;;3.50;2.25;;;;;;;;;;5048325;28;20475;-78
2021/05/05 06:30:54;;;;;;;6.25;2.75;;;;;;;;;;5049521;28;20021;-78
2021/05/05 06:33:20;;;;;;;4.95;4.47;;;;;;;;;;5040303;28;20017;-78
2021/05/05 06:35:46;;;;;;;8.40;7.05;;;;;;;;;;5046972;28;20032;-78
2021/05/05 06:38:12;;;;;;;6.78;5.90;;;;;;;;;;5046435;28;20036;-79
2021/05/05 06:40:38;;;;;;;5.75;3.63;;;;;;;;;;5048338;28;20036;-78
2021/05/05 06:43:04;;;;;;;9.93;5.07;;;;;;;;;;5041225;28;20034;-82
2021/05/05 06:45:30;;;;;;;6.35;3.85;;;;;;;;;;5032308;28;20045;-85
2021/05/05 06:47:56;;;;;;;5.18;4.60;;;;;;;;;;5044455;28;20047;-83
2021/05/05 06:50:23;;;;;;;4.28;3.13;;;;;;;;;;5046329;28;20082;-83
2021/05/05 06:52:49;;;;;;;5.88;3.53;;;;;;;;;;5029995;28;20447;-81
2021/05/05 06:55:15;;;;;;;4.22;3.20;;;;;;;;;;5040630;28;20036;-81
2021/05/05 06:57:41;;;;;;;3.83;3.28;;;;;;;;;;5045987;28;20117;-82
2021/05/05 07:00:08;;;;;;;4.70;3.17;;;;;;;;;;5046609;28;20056;-82
2021/05/05 07:02:34;;;;;;;3.90;3.53;;;;;;;;;;5046187;28;20025;-82
2021/05/05 07:05:01;;;;;;;3.17;2.38;;;;;;;;;;5046647;28;20070;-83
2021/05/05 07:07:30;;;;;;;5.78;2.90;;;;;;;;;;5043865;28;20037;-84
2021/05/05 07:09:57;;;;;;;6.35;2.72;;;;;;;;;;5045756;28;20116;-83
2021/05/05 07:12:23;;;;;;;3.08;2.67;;;;;;;;;;5046740;28;20029;-83
2021/05/05 07:14:49;;;;;;;3.25;2.75;;;;;;;;;;5027524;28;20117;-82
2021/05/05 07:17:15;;;;;;;4.30;2.47;;;;;;;;;;5045289;28;20566;-80
2021/05/05 07:19:42;;;;;;;5.13;2.55;;;;;;;;;;5047141;28;20029;-81
2021/05/05 07:22:08;;;;;;;5.47;2.83;;;;;;;;;;5046530;28;20035;-81
2021/05/05 07:24:34;;;;;;;3.58;3.03;;;;;;;;;;5046334;28;20045;-81
2021/05/05 07:27:00;;;;;;;5.15;2.67;;;;;;;;;;5045285;28;20128;-83
2021/05/05 07:29:26;;;;;;;5.15;2.50;;;;;;;;;;5046044;28;20040;-83
2021/05/05 07:31:52;;;;;;;2.80;2.60;;;;;;;;;;5029019;28;20040;-85
2021/05/05 07:34:18;;;;;;;2.83;2.58;;;;;;;;;;5028282;28;20040;-81
2021/05/05 07:36:49;;;;;;;9.75;2.83;;;;;;;;;;5046025;28;20078;-81
2021/05/05 07:47:36;;;;;;;3.33;3.00;;;;;;;;;;5049736;28;20041;-80
2021/05/05 07:50:04;;;;;;;6.30;2.45;;;;;;;;;;5052110;28;20028;-81
2021/05/05 07:52:30;;;;;;;2.72;2.53;;;;;;;;;;5047758;28;20029;-80
2021/05/05 07:54:57;;;;;;;3.15;2.25;;;;;;;;;;5050216;28;20108;-80
2021/05/05 07:57:23;;;;;;;5.80;2.90;;;;;;;;;;5049635;28;20115;-80
2021/05/05 07:59:49;;;;;;;4.25;2.55;;;;;;;;;;5051380;28;20052;-80
2021/05/05 08:02:15;;;;;;;2.45;2.25;;;;;;;;;;5043084;28;20029;-80
2021/05/05 08:04:51;;;;;;;3.63;3.00;;;;;;;;;;5047471;28;20064;-80
2021/05/05 08:07:20;;;;;;;2.92;2.38;;;;;;;;;;5048292;28;20033;-80
2021/05/05 08:09:47;;;;;;;1.75;1.65;;;;;;;;;;5050906;28;20029;-80
2021/05/05 08:12:14;;;;;;;3.25;2.47;;;;;;;;;;5050299;28;20391;-80
2021/05/05 08:14:41;;;;;;;4.28;2.50;;;;;;;;;;5047787;28;20474;-80
2021/05/05 08:17:07;;;;;;;2.33;2.10;;;;;;;;;;5046828;28;20028;-80
2021/05/05 08:19:34;;;;;;;2.83;1.85;;;;;;;;;;5048893;28;20496;-81
2021/05/05 08:22:00;;;;;;;2.80;2.13;;;;;;;;;;5049124;28;20120;-81
2021/05/05 08:24:29;;;;;;;4.63;2.00;;;;;;;;;;5049215;28;20088;-81
2021/05/05 08:26:56;;;;;;;3.90;1.98;;;;;;;;;;5050655;28;20510;-81
2021/05/05 08:29:22;;;;;;;3.00;2.20;;;;;;;;;;5030639;28;20044;-81
2021/05/05 08:31:48;;;;;;;2.50;1.45;;;;;;;;;;5027876;28;20025;-80
2021/05/05 08:34:15;;;;;;;1.88;1.73;;;;;;;;;;5048327;28;20071;-80
2021/05/05 08:36:41;;;;;;;3.47;1.60;;;;;;;;;;5045073;28;20029;-81
2021/05/05 08:39:07;;;;;;;1.52;1.15;;;;;;;;;;5047563;28;20033;-80
2021/05/05 08:41:33;;;;;;;1.77;1.48;;;;;;;;;;5049435;28;20107;-80
2021/05/05 08:44:00;;;;;;;2.25;1.05;;;;;;;;;;5051289;28;20041;-83
2021/05/05 08:46:27;;;;;;;3.65;0.80;;;;;;;;;;5046669;28;20531;-81
2021/05/05 08:48:53;;;;;;;0.80;0.80;;;;;;;;;;5032069;28;20510;-82
2021/05/05 08:51:19;;;;;;;2.50;1.17;;;;;;;;;;5047783;28;20029;-83
2021/05/05 08:53:45;;;;;;;2.88;1.35;;;;;;;;;;5032378;28;20029;-85
2021/05/05 08:56:12;;;;;;;2.47;0.98;;;;;;;;;;5047867;28;20103;-81
2021/05/05 08:58:38;;;;;;;3.42;1.13;;;;;;;;;;5049682;28;20049;-82
2021/05/05 09:01:05;;;;;;;1.10;1.00;;;;;;;;;;5049581;28;20094;-83
2021/05/05 09:03:39;;;;;;;1.73;1.13;;;;;;;;;;5049197;28;20033;-83
2021/05/05 09:06:05;;;;;;;1.65;1.17;;;;;;;;;;5048743;28;20566;-82
2021/05/05 09:08:32;;;;;;;2.25;1.27;;;;;;;;;;5049735;28;20573;-82
2021/05/05 09:10:59;;;;;;;1.60;1.30;;;;;;;;;;5049808;28;20040;-82
2021/05/05 09:13:44;;;;;;;1.65;1.20;;;;;;;;;;5031432;28;20129;-82
2021/05/05 09:16:12;;;;;;;2.63;1.50;;;;;;;;;;5030442;28;20075;-83
2021/05/05 09:18:56;;;;;;;1.38;1.27;;;;;;;;;;5048847;28;20071;-80
2021/05/05 09:21:25;;;;;;;1.48;1.08;;;;;;;;;;5049435;28;20111;-83
2021/05/05 09:23:51;;;;;;;1.45;1.27;;;;;;;;;;5049444;28;20499;-79
2021/05/05 09:26:33;;;;;;;1.50;1.40;;;;;;;;;;5047974;28;20033;-79
2021/05/05 09:28:59;;;;;;;1.30;1.20;;;;;;;;;;5049144;28;20040;-80
2021/05/05 09:31:32;;;;;;;3.20;1.08;;;;;;;;;;5049775;28;20039;-80
2021/05/05 09:33:58;;;;;;;1.50;1.40;;;;;;;;;;5046330;28;20025;-80
2021/05/05 09:36:25;;;;;;;1.88;1.10;;;;;;;;;;5046935;28;20775;-81
2021/05/05 09:38:52;;;;;;;3.05;1.05;;;;;;;;;;5047447;28;20028;-79
2021/05/05 09:41:20;;;;;;;1.10;0.80;;;;;;;;;;5048065;28;20048;-80
2021/05/05 09:43:47;;;;;;;1.30;1.20;;;;;;;;;;5046353;28;20059;-84
2021/05/05 09:46:30;;;;;;;1.35;1.05;;;;;;;;;;5030852;28;20786;-84
2021/05/05 09:49:15;;;;;;;1.33;1.17;;;;;;;;;;5049417;28;20061;-80
2021/05/05 09:51:56;;;;;;;3.92;1.95;;;;;;;;;;5049585;28;20109;-81
2021/05/05 09:54:48;;;;;;;1.80;1.33;;;;;;;;;;5048977;28;20020;-80
2021/05/05 09:57:14;;;;;;;4.93;1.30;;;;;;;;;;5046071;28;20124;-80
2021/05/05 10:00:13;;;;;;;2.08;1.23;;;;;;;;;;5049059;28;20068;-80
2021/05/05 10:02:46;;;;;;;4.85;1.90;;;;;;;;;;5014596;28;20037;-80
2021/05/05 10:05:12;;;;;;;2.08;1.88;;;;;;;;;;5030324;28;20490;-81
2021/05/05 10:07:57;;;;;;;1.95;1.67;;;;;;;;;;5048738;28;20029;-81
2021/05/05 10:10:25;;;;;;;2.40;1.67;;;;;;;;;;5048726;28;20021;-83
2021/05/05 10:12:51;;;;;;;2.22;0.98;;;;;;;;;;5048299;28;20380;-82
2021/05/05 10:15:17;;;;;;;3.50;1.25;;;;;;;;;;5030165;28;20033;-81
2021/05/05 10:17:51;;;;;;;2.53;1.40;;;;;;;;;;5048933;28;20024;-80
2021/05/05 10:20:22;;;;;;;5.88;1.90;;;;;;;;;;5048212;28;20032;-81
2021/05/05 10:22:48;;;;;;;1.55;1.45;;;;;;;;;;5048972;28;20025;-80
2021/05/05 10:25:14;;;;;;;13.27;1.90;;;;;;;;;;5048835;28;20063;-80
2021/05/05 10:27:41;;;;;;;2.05;1.20;;;;;;;;;;5049071;28;20025;-81
2021/05/05 10:30:08;;;;;;;4.53;1.33;;;;;;;;;;5049069;28;20468;-80
2021/05/05 10:32:34;;;;;;;1.52;1.15;;;;;;;;;;5047003;28;20037;-80
2021/05/05 10:35:00;;;;;;;0.82;0.80;;;;;;;;;;5049062;28;20033;-80
2021/05/05 10:37:44;;;;;;;3.00;1.05;;;;;;;;;;5047964;28;20035;-80
2021/05/05 10:40:15;;;;;;;2.30;1.05;;;;;;;;;;5048284;28;20450;-80
2021/05/05 10:42:49;;;;;;;1.67;1.23;;;;;;;;;;5049105;28;20025;-80
2021/05/05 10:45:27;;;;;;;1.27;1.05;;;;;;;;;;5045876;28;20040;-79
2021/05/05 10:48:07;;;;;;;3.30;1.30;;;;;;;;;;5049408;28;20025;-80
2021/05/05 10:50:53;;;;;;;1.52;1.27;;;;;;;;;;5046606;28;20032;-80
2021/05/05 10:53:20;;;;;;;1.30;1.20;;;;;;;;;;5048551;28;20380;-79
2021/05/05 10:55:48;;;;;;;6.65;1.55;;;;;;;;;;5049346;28;20039;-80
2021/05/05 10:58:15;;;;;;;3.08;0.68;;;;;;;;;;5047818;28;20451;-79
2021/05/05 11:00:49;;;;;;;0.95;0.73;;;;;;;;;;5049501;28;20025;-80
2021/05/05 11:03:18;;;;;;;0.47;0.47;;;;;;;;;;5048825;28;20094;-79
2021/05/05 11:05:45;;;;;;;1.75;0.77;;;;;;;;;;5048817;28;20036;-81
2021/05/05 11:08:26;;;;;;;0.70;0.70;;;;;;;;;;5048985;28;20520;-80
2021/05/05 11:10:53;;;;;;;1.17;0.88;;;;;;;;;;5049334;28;20377;-79
2021/05/05 11:13:21;;;;;;;2.25;0.60;;;;;;;;;;5051587;28;20112;-80
2021/05/05 11:15:47;;;;;;;0.82;0.82;;;;;;;;;;5052940;28;20104;-80
2021/05/05 11:20:52;;;;;;;1.58;0.40;;;;;;;;;;5053511;28;20037;-80
2021/05/05 11:23:33;;;;;;;0.55;0.43;;;;;;;;;;5050996;28;20028;-81
2021/05/05 11:26:18;;;;;;;1.95;0.47;;;;;;;;;;5052440;28;20523;-80
2021/05/05 11:28:53;;;;;;;0.88;0.52;;;;;;;;;;5050538;28;20048;-80
2021/05/05 11:31:20;;;;;;;1.75;0.90;;;;;;;;;;5052410;28;20152;-80
2021/05/05 11:33:59;;;;;;;0.88;0.35;;;;;;;;;;5051421;28;20112;-80
2021/05/05 11:36:25;;;;;;;0.70;0.60;;;;;;;;;;5050397;28;20039;-79
2021/05/05 11:38:51;;;;;;;1.02;0.50;;;;;;;;;;5049340;28;20036;-80
2021/05/05 11:41:21;;;;;;;0.45;0.45;;;;;;;;;;5044283;28;20050;-79
2021/05/05 11:43:48;;;;;;;1.00;0.80;;;;;;;;;;5048497;28;20106;-80
2021/05/05 11:46:14;;;;;;;1.55;0.40;;;;;;;;;;5049187;28;20167;-79
2021/05/05 11:48:41;;;;;;;1.00;0.40;;;;;;;;;;5047857;28;20025;-80
2021/05/05 11:51:21;;;;;;;1.88;0.50;;;;;;;;;;5048225;28;20032;-83
2021/05/05 11:53:47;;;;;;;0.20;0.20;;;;;;;;;;5051777;28;20116;-82
2021/05/05 11:56:31;;;;;;;0.90;0.38;;;;;;;;;;5046206;28;20029;-80
2021/05/05 11:58:58;;;;;;;0.30;0.30;;;;;;;;;;5051824;28;20033;-80
2021/05/05 12:01:31;;;;;;;0.55;0.55;;;;;;;;;;5049263;28;20094;-80
2021/05/05 12:04:16;;;;;;;0.73;0.50;;;;;;;;;;5048598;28;20064;-80
2021/05/05 12:06:48;;;;;;;0.20;0.20;;;;;;;;;;5050315;28;20060;-80
2021/05/05 12:09:27;;;;;;;1.65;0.63;;;;;;;;;;5050155;28;20033;-80
2021/05/05 12:12:11;;;;;;;2.85;0.60;;;;;;;;;;5047769;28;20037;-80
2021/05/05 12:14:38;;;;;;;0.50;0.50;;;;;;;;;;5049011;28;20068;-80
2021/05/05 12:17:15;;;;;;;0.47;0.40;;;;;;;;;;5049868;28;20580;-81
2021/05/05 12:19:51;;;;;;;0.25;0.25;;;;;;;;;;5045430;28;20055;-80
2021/05/05 12:22:17;;;;;;;1.85;0.40;;;;;;;;;;5049047;28;20090;-80
2021/05/05 12:25:03;;;;;;;4.00;0.45;;;;;;;;;;5043383;28;20124;-80
2021/05/05 12:27:29;;;;;;;0.73;0.57;;;;;;;;;;5042532;28;20060;-81
2021/05/05 12:29:59;;;;;;;0.47;0.47;;;;;;;;;;5046922;28;20021;-80
2021/05/05 12:32:40;;;;;;;1.30;1.20;;;;;;;;;;5042838;28;20028;-81
2021/05/05 12:35:06;;;;;;;1.20;0.52;;;;;;;;;;5047215;28;20049;-79
2021/05/05 12:37:32;;;;;;;0.88;0.75;;;;;;;;;;5031760;28;20083;-80
2021/05/05 12:39:59;;;;;;;0.25;0.25;;;;;;;;;;5049303;28;20025;-80
2021/05/05 12:42:33;;;;;;;0.88;0.38;;;;;;;;;;5046888;28;20033;-79
2021/05/05 12:45:15;;;;;;;1.08;0.43;;;;;;;;;;5048495;28;20515;-79
2021/05/05 12:47:42;;;;;;;0.63;0.60;;;;;;;;;;5050305;28;20033;-83
2021/05/05 12:50:09;;;;;;;1.85;0.70;;;;;;;;;;5050858;28;20025;-80
2021/05/05 12:52:37;;;;;;;1.00;0.60;;;;;;;;;;5049758;28;20387;-80
2021/05/05 12:55:22;;;;;;;1.33;0.70;;;;;;;;;;5046723;28;20025;-80
2021/05/05 12:58:04;;;;;;;1.38;0.77;;;;;;;;;;5049611;28;20045;-81
2021/05/05 13:00:32;;;;;;;1.42;0.55;;;;;;;;;;5047200;28;20465;-82
2021/05/05 13:03:02;;;;;;;0.60;0.60;;;;;;;;;;5049866;28;20040;-80
2021/05/05 13:05:28;;;;;;;0.77;0.40;;;;;;;;;;5047749;28;20499;-81
2021/05/05 13:07:55;;;;;;;4.88;1.23;;;;;;;;;;5049885;28;20032;-79
2021/05/05 13:10:23;;;;;;;0.88;0.65;;;;;;;;;;5050032;28;20352;-79
2021/05/05 13:13:06;;;;;;;3.80;0.50;;;;;;;;;;5048206;28;20615;-79
2021/05/05 13:18:29;;;;;;;0.70;0.70;;;;;;;;;;5049649;28;20080;-79
2021/05/05 13:32:39;;;;;;;1.02;0.65;;;;;;;;;;5017846;28;20064;-80
2021/05/05 13:35:20;;;;;;;1.40;0.52;;;;;;;;;;5049267;28;20025;-80
2021/05/05 13:37:55;;;;;;;0.50;0.50;;;;;;;;;;5049664;28;20031;-80
2021/05/05 13:40:22;;;;;;;1.85;0.70;;;;;;;;;;5049013;28;20096;-80
2021/05/05 13:42:49;;;;;;;7.68;1.23;;;;;;;;;;5050275;28;20039;-79
2021/05/05 13:45:16;;;;;;;1.20;0.73;;;;;;;;;;5048869;28;20033;-79
2021/05/05 13:50:27;;;;;;;0.73;0.45;;;;;;;;;;5047988;28;20048;-79
2021/05/05 13:52:53;;;;;;;1.92;0.93;;;;;;;;;;5049890;28;20071;-79
2021/05/05 13:55:19;;;;;;;2.72;0.35;;;;;;;;;;5049198;28;20040;-79
2021/05/05 13:57:46;;;;;;;0.75;0.40;;;;;;;;;;5049078;28;20127;-79
2021/05/05 14:00:14;;;;;;;0.50;0.50;;;;;;;;;;5047448;28;20025;-79
2021/05/05 14:02:40;;;;;;;4.28;0.50;;;;;;;;;;5049680;28;20466;-79
2021/05/05 14:05:07;;;;;;;1.58;0.80;;;;;;;;;;5044626;28;20136;-79
2021/05/05 14:07:35;;;;;;;2.05;0.57;;;;;;;;;;5046060;28;20531;-79
2021/05/05 14:10:03;;;;;;;0.88;0.50;;;;;;;;;;5049151;28;20738;-79
2021/05/05 14:12:29;;;;;;;1.58;0.55;;;;;;;;;;5047608;28;20112;-79
2021/05/05 14:14:55;;;;;;;0.80;0.63;;;;;;;;;;5049349;28;20025;-80
2021/05/05 14:17:21;;;;;;;0.73;0.50;;;;;;;;;;5047289;28;20539;-80
2021/05/05 14:19:47;;;;;;;1.08;0.50;;;;;;;;;;5049255;28;20104;-80
2021/05/05 14:22:13;;;;;;;1.38;0.40;;;;;;;;;;5048708;28;20108;-80
2021/05/05 14:24:39;;;;;;;1.35;0.77;;;;;;;;;;5044142;28;20045;-79
2021/05/05 14:27:06;;;;;;;0.43;0.43;;;;;;;;;;5045559;28;20197;-81
2021/05/05 14:29:33;;;;;;;0.57;0.22;;;;;;;;;;5048883;28;20518;-82
2021/05/05 14:31:59;;;;;;;0.88;0.85;;;;;;;;;;5047517;28;20068;-82
2021/05/05 14:34:25;;;;;;;0.80;0.28;;;;;;;;;;5046277;28;20054;-81
2021/05/05 14:36:51;;;;;;;1.05;0.82;;;;;;;;;;5048345;28;20044;-81
2021/05/05 14:39:20;;;;;;;0.98;0.40;;;;;;;;;;5045244;28;20029;-81
2021/05/05 14:41:48;;;;;;;0.20;0.20;;;;;;;;;;5048413;28;20033;-81
2021/05/05 14:44:20;;;;;;;1.98;0.40;;;;;;;;;;5045115;28;20078;-81
2021/05/05 14:49:31;;;;;;;0.65;0.65;;;;;;;;;;5052035;28;20134;-81
2021/05/05 14:51:57;;;;;;;1.30;0.70;;;;;;;;;;5053718;28;20032;-81
2021/05/05 14:54:23;;;;;;;1.08;0.50;;;;;;;;;;5050992;28;20492;-80
2021/05/05 14:56:49;;;;;;;4.03;0.60;;;;;;;;;;5054118;28;20067;-80
2021/05/05 14:59:17;;;;;;;0.77;0.43;;;;;;;;;;5052795;28;21029;-83
2021/05/05 15:01:43;;;;;;;1.13;0.85;;;;;;;;;;5054760;28;20048;-80
2021/05/05 15:04:09;;;;;;;2.25;0.68;;;;;;;;;;5053717;28;20119;-80
2021/05/05 15:06:38;;;;;;;1.65;0.50;;;;;;;;;;5054181;28;20025;-80
2021/05/05 15:36:53;;;;;;;5.88;1.35;;;;;;;;;;5054407;28;20025;-80
2021/05/05 15:39:29;;;;;;;15.30;1.95;;;;;;;;;;5055339;28;20025;-80
2021/05/05 15:42:00;;;;;;;13.60;2.40;;;;;;;;;;5055432;28;20060;-81
2021/05/05 15:49:20;;;;;;;9.90;1.55;;;;;;;;;;5055930;28;20112;-80
2021/05/05 15:51:46;;;;;;;7.80;1.17;;;;;;;;;;5046642;28;20044;-81